createdAt,value
2022-08-26T00:02:07.332Z,3.95
2022-08-26T00:04:36.774Z,3.50
2022-08-26T00:07:06.967Z,4.40
2022-08-26T00:09:40.949Z,3.97
2022-08-26T00:12:09.478Z,5.03
2022-08-26T00:14:42.479Z,4.38
2022-08-26T00:17:10.113Z,4.68
2022-08-26T00:19:39.670Z,3.67
2022-08-26T00:22:09.984Z,5.22
2022-08-26T00:24:48.343Z,4.35
2022-08-26T00:27:22.538Z,3.75
2022-08-26T00:32:23.025Z,4.75
2022-08-26T00:34:58.133Z,4.38
2022-08-26T00:39:58.458Z,4.47
2022-08-26T00:42:30.230Z,3.38
2022-08-26T00:45:00.236Z,4.45
2022-08-26T00:47:35.418Z,5.38
2022-08-26T00:50:10.565Z,4.22
2022-08-26T00:52:42.034Z,4.20
2022-08-26T00:55:20.729Z,3.85
2022-08-26T00:57:52.271Z,4.53
2022-08-26T01:00:26.598Z,4.18
2022-08-26T01:02:57.815Z,3.97
2022-08-26T01:05:25.729Z,3.75
2022-08-26T01:07:55.162Z,4.30
2022-08-26T01:10:30.158Z,3.25
2022-08-26T01:13:05.983Z,3.85
2022-08-26T01:15:46.305Z,4.13
2022-08-26T01:18:19.483Z,3.55
2022-08-26T01:21:07.912Z,4.15
2022-08-26T01:23:41.039Z,3.85
2022-08-26T01:26:22.137Z,3.33
2022-08-26T01:28:53.843Z,4.30
2022-08-26T01:31:30.059Z,4.13
2022-08-26T01:34:07.413Z,4.63
2022-08-26T01:36:42.489Z,3.90
2022-08-26T01:39:20.418Z,5.25
2022-08-26T01:41:55.900Z,3.70
2022-08-26T01:44:32.709Z,4.45
2022-08-26T01:47:03.178Z,4.20
2022-08-26T01:49:36.617Z,4.93
2022-08-26T01:52:12.466Z,4.22
2022-08-26T01:54:46.364Z,4.95
2022-08-26T01:57:22.931Z,4.35
2022-08-26T01:59:54.698Z,4.57
2022-08-26T02:02:24.829Z,4.13
2022-08-26T02:05:05.834Z,4.85
2022-08-26T02:07:39.503Z,4.35
2022-08-26T02:10:10.637Z,4.22
2022-08-26T02:12:38.225Z,4.15
2022-08-26T02:15:09.783Z,4.90
2022-08-26T02:17:44.741Z,5.30
2022-08-26T02:20:16.342Z,3.90
2022-08-26T02:25:29.561Z,4.05
2022-08-26T02:27:57.148Z,5.32
2022-08-26T02:30:32.035Z,5.85
2022-08-26T02:33:03.580Z,4.50
2022-08-26T02:35:36.199Z,4.65
2022-08-26T02:38:10.249Z,4.70
2022-08-26T02:40:44.035Z,4.25
2022-08-26T02:43:13.962Z,5.15
2022-08-26T02:48:14.788Z,5.38
2022-08-26T02:50:45.150Z,4.90
2022-08-26T02:53:12.518Z,5.75
2022-08-26T02:55:41.050Z,5.82
2022-08-26T02:58:09.843Z,4.88
2022-08-26T03:00:39.962Z,4.50
2022-08-26T03:03:28.003Z,4.47
2022-08-26T03:05:55.230Z,5.55
2022-08-26T03:08:24.730Z,4.65
2022-08-26T03:10:57.359Z,4.68
2022-08-26T03:13:29.596Z,4.80
2022-08-26T03:15:57.222Z,4.15
2022-08-26T03:18:29.513Z,5.38
2022-08-26T03:21:08.509Z,4.57
2022-08-26T03:23:42.566Z,4.35
2022-08-26T03:26:13.950Z,4.90
2022-08-26T03:29:01.266Z,4.23
2022-08-26T03:31:30.039Z,3.75
2022-08-26T03:33:59.900Z,4.70
2022-08-26T03:36:35.115Z,4.88
2022-08-26T03:39:03.331Z,5.57
2022-08-26T03:41:34.423Z,4.63
2022-08-26T03:44:05.071Z,5.22
2022-08-26T03:46:38.631Z,4.97
2022-08-26T03:49:10.998Z,4.32
2022-08-26T03:51:40.655Z,4.47
2022-08-26T03:54:14.236Z,6.43
2022-08-26T03:56:48.716Z,4.40
2022-08-26T03:59:16.018Z,4.90
2022-08-26T04:01:47.982Z,4.88
2022-08-26T04:04:15.559Z,4.75
2022-08-26T04:06:44.715Z,4.57
2022-08-26T04:09:20.116Z,4.60
2022-08-26T04:11:50.664Z,4.47
2022-08-26T04:14:23.650Z,5.07
2022-08-26T04:16:57.341Z,4.65
2022-08-26T04:19:29.506Z,5.72
2022-08-26T04:21:59.215Z,4.50
2022-08-26T04:24:30.991Z,4.25
2022-08-26T04:27:02.081Z,4.43
2022-08-26T04:29:34.263Z,4.80
2022-08-26T04:32:03.086Z,5.10
2022-08-26T04:34:31.156Z,3.80
2022-08-26T04:36:59.282Z,6.32
2022-08-26T04:39:30.002Z,4.88
2022-08-26T04:42:00.206Z,6.07
2022-08-26T04:44:30.095Z,5.20
2022-08-26T04:46:58.474Z,5.18
2022-08-26T04:49:26.243Z,4.70
2022-08-26T04:52:00.409Z,5.50
2022-08-26T04:54:30.519Z,5.25
2022-08-26T04:57:01.514Z,5.18
2022-08-26T04:59:38.460Z,5.00
2022-08-26T05:02:07.314Z,4.28
2022-08-26T05:04:37.273Z,4.25
2022-08-26T05:07:10.562Z,5.25
2022-08-26T05:09:40.102Z,5.32
2022-08-26T05:12:12.483Z,5.95
2022-08-26T05:14:46.385Z,4.57
2022-08-26T05:17:16.762Z,4.68
2022-08-26T05:19:47.117Z,4.97
2022-08-26T05:22:17.349Z,4.45
2022-08-26T05:24:50.085Z,4.78
2022-08-26T05:27:24.102Z,4.47
2022-08-26T05:29:56.011Z,4.97
2022-08-26T05:32:25.870Z,4.57
2022-08-26T05:34:57.854Z,6.88
2022-08-26T05:37:25.689Z,6.50
2022-08-26T05:39:52.870Z,6.68
2022-08-26T05:42:22.762Z,5.82
2022-08-26T05:44:56.369Z,6.78
2022-08-26T05:47:29.735Z,5.93
2022-08-26T05:49:56.965Z,5.25
2022-08-26T05:52:24.632Z,5.05
2022-08-26T05:54:53.470Z,5.18
2022-08-26T05:57:23.238Z,5.80
2022-08-26T05:59:52.943Z,5.07
2022-08-26T06:02:27.243Z,5.43
2022-08-26T06:05:01.652Z,11.75
2022-08-26T06:07:56.601Z,8.70
2022-08-26T06:10:33.543Z,5.72
2022-08-26T06:13:11.489Z,6.90
2022-08-26T06:15:45.559Z,5.32
2022-08-26T06:18:14.797Z,5.60
2022-08-26T06:20:49.552Z,5.65
2022-08-26T06:23:48.747Z,4.22
2022-08-26T06:26:20.838Z,3.93
2022-08-26T06:28:48.225Z,4.45
2022-08-26T06:31:18.069Z,4.85
2022-08-26T06:33:48.302Z,4.25
2022-08-26T06:36:20.865Z,5.13
2022-08-26T06:38:49.724Z,4.10
2022-08-26T06:41:21.127Z,4.53
2022-08-26T06:43:53.387Z,6.43
2022-08-26T06:46:26.185Z,4.88
2022-08-26T06:48:58.548Z,5.32
2022-08-26T06:51:34.632Z,4.55
2022-08-26T06:54:05.818Z,5.63
2022-08-26T06:56:39.902Z,4.60
2022-08-26T06:59:13.198Z,6.38
2022-08-26T07:01:45.878Z,5.53
2022-08-26T07:04:21.906Z,4.53
2022-08-26T07:06:53.703Z,7.10
2022-08-26T07:09:30.294Z,4.53
2022-08-26T07:12:03.038Z,6.40
2022-08-26T07:14:31.748Z,4.90
2022-08-26T07:17:03.944Z,4.57
2022-08-26T07:19:31.879Z,5.07
2022-08-26T07:22:04.535Z,3.20
2022-08-26T07:24:35.065Z,3.50
2022-08-26T07:27:08.756Z,3.08
2022-08-26T07:29:37.922Z,3.70
2022-08-26T07:32:08.435Z,3.38
2022-08-26T07:34:39.042Z,6.22
2022-08-26T07:37:08.677Z,3.08
2022-08-26T07:39:40.478Z,3.47
2022-08-26T07:42:13.786Z,4.07
2022-08-26T07:44:42.573Z,3.60
2022-08-26T07:47:25.753Z,2.65
2022-08-26T07:49:56.474Z,3.08
2022-08-26T07:52:27.041Z,3.20
2022-08-26T07:54:59.773Z,3.08
2022-08-26T07:57:28.389Z,3.10
2022-08-26T07:59:58.438Z,2.75
2022-08-26T08:02:27.222Z,3.83
2022-08-26T08:05:01.416Z,4.40
2022-08-26T08:07:45.136Z,2.92
2022-08-26T08:10:17.109Z,3.00
2022-08-26T08:12:49.974Z,4.18
2022-08-26T08:15:26.480Z,3.80
2022-08-26T08:17:58.843Z,3.30
2022-08-26T08:20:32.228Z,3.22
2022-08-26T08:23:05.570Z,4.28
2022-08-26T08:25:34.474Z,4.57
2022-08-26T08:28:03.953Z,5.03
2022-08-26T08:30:41.791Z,3.60
2022-08-26T08:33:09.491Z,4.07
2022-08-26T08:35:40.249Z,3.78
2022-08-26T08:38:07.468Z,3.67
2022-08-26T08:40:43.858Z,4.05
2022-08-26T08:43:26.239Z,4.60
2022-08-26T08:46:08.386Z,4.10
2022-08-26T08:48:45.692Z,3.03
2022-08-26T08:51:27.214Z,3.38
2022-08-26T08:53:56.090Z,3.05
2022-08-26T08:56:32.149Z,3.63
2022-08-26T08:59:14.298Z,3.35
2022-08-26T09:02:20.201Z,3.80
2022-08-26T09:05:08.918Z,2.75
2022-08-26T09:10:35.498Z,2.97
2022-08-26T09:13:16.721Z,3.15
2022-08-26T09:16:14.218Z,3.35
2022-08-26T09:19:11.874Z,3.40
2022-08-26T09:21:39.657Z,2.80
2022-08-26T09:24:14.006Z,3.45
2022-08-26T09:26:47.612Z,3.95
2022-08-26T09:29:27.203Z,3.28
2022-08-26T09:32:25.006Z,2.53
2022-08-26T09:35:00.099Z,2.50
2022-08-26T09:40:29.648Z,2.65
2022-08-26T09:43:22.798Z,2.80
2022-08-26T09:46:10.345Z,2.75
2022-08-26T09:48:42.586Z,3.15
2022-08-26T09:51:24.026Z,2.90
2022-08-26T09:53:57.088Z,2.92
2022-08-26T09:56:36.155Z,2.42
2022-08-26T09:59:11.100Z,2.90
2022-08-26T10:01:46.078Z,2.78
2022-08-26T10:04:28.360Z,2.53
2022-08-26T10:07:04.254Z,2.72
2022-08-26T10:09:35.969Z,2.20
2022-08-26T10:12:11.991Z,2.25
2022-08-26T10:14:47.917Z,3.20
2022-08-26T10:17:23.378Z,2.92
2022-08-26T10:20:06.216Z,2.55
2022-08-26T10:22:57.811Z,3.67
2022-08-26T10:25:45.557Z,3.90
2022-08-26T10:28:37.670Z,3.55
2022-08-26T10:31:27.750Z,2.70
2022-08-26T10:34:00.803Z,2.70
2022-08-26T10:37:10.783Z,2.95
2022-08-26T10:39:57.144Z,2.65
2022-08-26T10:42:46.518Z,3.10
2022-08-26T10:45:25.174Z,3.63
2022-08-26T10:48:12.500Z,2.72
2022-08-26T10:50:49.612Z,2.70
2022-08-26T10:53:24.883Z,2.90
2022-08-26T10:56:06.097Z,2.08
2022-08-26T10:58:58.314Z,2.72
2022-08-26T11:01:43.162Z,2.65
2022-08-26T11:04:22.878Z,3.72
2022-08-26T11:07:31.706Z,3.03
2022-08-26T11:10:37.367Z,2.63
2022-08-26T11:13:10.469Z,2.60
2022-08-26T11:15:44.286Z,3.08
2022-08-26T11:18:41.777Z,2.15
2022-08-26T11:21:49.554Z,2.88
2022-08-26T11:24:48.626Z,2.50
2022-08-26T11:27:28.439Z,2.20
2022-08-26T11:30:02.341Z,2.30
2022-08-26T11:32:39.290Z,3.95
2022-08-26T11:35:08.141Z,2.90
2022-08-26T11:37:43.235Z,2.70
2022-08-26T11:40:18.447Z,2.55
2022-08-26T11:42:55.680Z,2.08
2022-08-26T11:45:43.071Z,2.10
2022-08-26T11:48:17.987Z,6.40
2022-08-26T11:51:01.703Z,2.78
2022-08-26T11:53:32.722Z,2.28
2022-08-26T11:56:08.995Z,3.35
2022-08-26T11:58:46.882Z,2.63
2022-08-26T12:01:27.682Z,3.35
2022-08-26T12:04:06.103Z,2.85
2022-08-26T12:06:45.748Z,3.25
2022-08-26T12:09:24.830Z,2.40
2022-08-26T12:12:10.525Z,2.60
2022-08-26T12:14:42.841Z,1.67
2022-08-26T12:17:18.047Z,2.30
2022-08-26T12:19:46.625Z,2.35
2022-08-26T12:22:24.366Z,2.35
2022-08-26T12:24:56.094Z,2.35
2022-08-26T12:27:34.557Z,2.38
2022-08-26T12:30:08.462Z,2.50
2022-08-26T12:32:50.996Z,2.53
2022-08-26T12:35:28.905Z,2.10
2022-08-26T12:37:59.616Z,1.98
2022-08-26T12:40:44.936Z,2.35
2022-08-26T12:43:46.248Z,2.15
2022-08-26T12:46:29.350Z,2.28
2022-08-26T12:49:03.497Z,2.35
2022-08-26T12:51:42.022Z,2.10
2022-08-26T12:54:17.947Z,2.20
2022-08-26T12:56:51.917Z,2.50
2022-08-26T12:59:26.444Z,3.10
2022-08-26T13:01:56.906Z,2.47
2022-08-26T13:04:33.680Z,2.38
2022-08-26T13:07:23.049Z,2.88
2022-08-26T13:09:57.377Z,2.15
2022-08-26T13:12:33.480Z,2.50
2022-08-26T13:15:03.690Z,2.60
2022-08-26T13:17:36.084Z,3.88
2022-08-26T13:20:06.318Z,3.42
2022-08-26T13:22:38.327Z,3.25
2022-08-26T13:25:06.222Z,3.17
2022-08-26T13:27:35.933Z,3.55
2022-08-26T13:30:05.150Z,3.13
2022-08-26T13:32:37.494Z,2.25
2022-08-26T13:35:05.759Z,2.88
2022-08-26T13:37:36.406Z,2.88
2022-08-26T13:40:07.755Z,2.83
2022-08-26T13:42:37.508Z,3.13
2022-08-26T13:45:17.690Z,2.35
2022-08-26T13:47:47.195Z,3.85
2022-08-26T13:50:17.059Z,3.40
2022-08-26T13:52:47.625Z,2.60
2022-08-26T13:55:19.574Z,3.45
2022-08-26T13:57:52.433Z,3.00
2022-08-26T14:00:22.327Z,3.13
2022-08-26T14:02:52.613Z,2.63
2022-08-26T14:05:20.017Z,2.78
2022-08-26T14:07:49.400Z,3.90
2022-08-26T14:10:16.987Z,2.35
2022-08-26T14:12:49.049Z,3.15
2022-08-26T14:15:19.149Z,3.42
2022-08-26T14:17:48.815Z,3.60
2022-08-26T14:20:27.305Z,3.42
2022-08-26T14:23:13.261Z,3.42
2022-08-26T14:25:41.677Z,3.65
2022-08-26T14:28:09.214Z,4.20
2022-08-26T14:30:42.266Z,3.30
2022-08-26T14:33:14.924Z,3.55
2022-08-26T14:35:48.862Z,3.78
2022-08-26T14:38:19.410Z,4.07
2022-08-26T14:40:48.997Z,4.10
2022-08-26T14:43:18.713Z,3.67
2022-08-26T14:45:46.104Z,4.18
2022-08-26T14:48:15.699Z,3.60
2022-08-26T14:50:42.995Z,4.07
2022-08-26T14:53:29.395Z,3.45
2022-08-26T14:55:56.694Z,4.30
2022-08-26T14:58:24.080Z,4.82
2022-08-26T15:00:51.222Z,3.58
2022-08-26T15:03:20.874Z,3.90
2022-08-26T15:05:52.844Z,3.92
2022-08-26T15:08:22.414Z,3.92
2022-08-26T15:10:51.701Z,3.35
2022-08-26T15:13:22.049Z,2.95
2022-08-26T15:15:49.558Z,3.20
2022-08-26T15:18:22.170Z,2.90
2022-08-26T15:20:57.547Z,3.75
2022-08-26T15:23:25.240Z,4.47
2022-08-26T15:26:02.516Z,3.33
2022-08-26T15:28:33.054Z,3.13
2022-08-26T15:31:05.562Z,3.05
2022-08-26T15:33:36.534Z,5.18
2022-08-26T15:36:08.093Z,4.70
2022-08-26T15:38:41.306Z,3.40
2022-08-26T15:41:10.347Z,3.65
2022-08-26T15:43:38.258Z,3.45
2022-08-26T15:46:11.183Z,3.80
2022-08-26T15:48:41.806Z,3.85
2022-08-26T15:51:24.137Z,4.05
2022-08-26T15:53:52.927Z,3.70
2022-08-26T15:56:31.018Z,3.60
2022-08-26T15:59:01.713Z,3.88
2022-08-26T16:01:32.345Z,3.28
2022-08-26T16:04:07.207Z,3.55
2022-08-26T16:06:40.051Z,3.30
2022-08-26T16:09:08.781Z,4.05
2022-08-26T16:11:39.525Z,3.25
2022-08-26T16:14:09.858Z,3.28
2022-08-26T16:16:40.162Z,3.10
2022-08-26T16:19:12.621Z,3.33
2022-08-26T16:21:43.099Z,11.45
2022-08-26T16:24:16.256Z,4.35
2022-08-26T16:26:46.372Z,3.70
2022-08-26T16:29:16.274Z,3.28
2022-08-26T16:31:47.571Z,3.95
2022-08-26T16:34:18.041Z,4.28
2022-08-26T16:36:45.231Z,4.03
2022-08-26T16:39:15.101Z,4.85
2022-08-26T16:41:44.624Z,4.85
2022-08-26T16:44:14.262Z,3.72
2022-08-26T16:46:42.319Z,4.13
2022-08-26T16:49:16.968Z,3.88
2022-08-26T16:51:46.916Z,3.78
2022-08-26T16:54:16.876Z,4.15
2022-08-26T16:56:48.913Z,3.63
2022-08-26T16:59:21.476Z,3.53
2022-08-26T17:01:51.225Z,4.75
2022-08-26T17:04:22.025Z,4.90
2022-08-26T17:06:53.497Z,3.80
2022-08-26T17:09:21.692Z,4.80
2022-08-26T17:11:56.599Z,4.68
2022-08-26T17:14:27.045Z,5.35
2022-08-26T17:16:54.494Z,6.07
2022-08-26T17:19:29.255Z,5.43
2022-08-26T17:22:12.653Z,4.72
2022-08-26T17:24:39.793Z,5.30
2022-08-26T17:27:09.509Z,4.97
2022-08-26T17:29:41.761Z,5.18
2022-08-26T17:32:09.110Z,4.80
2022-08-26T17:34:38.908Z,4.63
2022-08-26T17:37:08.361Z,4.00
2022-08-26T17:39:44.108Z,4.55
2022-08-26T17:42:14.626Z,4.68
2022-08-26T17:44:42.200Z,6.07
2022-08-26T17:47:09.313Z,5.13
2022-08-26T17:49:38.979Z,5.55
2022-08-26T17:52:11.588Z,5.47
2022-08-26T17:54:41.585Z,4.72
2022-08-26T17:57:10.977Z,5.43
2022-08-26T17:59:41.465Z,5.90
2022-08-26T18:02:08.734Z,6.68
2022-08-26T18:04:35.953Z,5.30
2022-08-26T18:07:03.555Z,6.53
2022-08-26T18:09:35.402Z,6.40
2022-08-26T18:12:02.794Z,7.88
2022-08-26T18:14:31.777Z,8.07
2022-08-26T18:17:02.093Z,6.93
2022-08-26T18:19:29.804Z,10.32
2022-08-26T18:21:57.806Z,11.95
2022-08-26T18:24:25.265Z,8.68
2022-08-26T18:26:56.821Z,7.32
2022-08-26T18:31:52.590Z,5.75
2022-08-26T18:34:24.959Z,5.63
2022-08-26T18:36:59.185Z,6.13
2022-08-26T18:39:33.323Z,6.13
2022-08-26T18:42:03.865Z,5.57
2022-08-26T18:44:30.958Z,5.70
2022-08-26T18:47:02.857Z,5.20
2022-08-26T18:49:32.583Z,6.05
2022-08-26T18:52:09.855Z,6.47
2022-08-26T18:54:37.320Z,6.97
2022-08-26T18:57:04.690Z,6.28
2022-08-26T18:59:41.722Z,6.65
2022-08-26T19:02:16.376Z,7.35
2022-08-26T19:04:46.214Z,6.65
2022-08-26T19:07:15.974Z,6.20
2022-08-26T19:09:45.947Z,6.55
2022-08-26T19:12:13.183Z,5.85
2022-08-26T19:14:41.729Z,5.85
2022-08-26T19:17:10.192Z,7.00
2022-08-26T19:19:38.452Z,6.97
2022-08-26T19:22:11.077Z,6.53
2022-08-26T19:24:40.746Z,5.97
2022-08-26T19:27:11.676Z,5.90
2022-08-26T19:29:46.671Z,7.22
2022-08-26T19:32:24.248Z,5.75
2022-08-26T19:34:52.893Z,5.97
2022-08-26T19:37:22.795Z,6.45
2022-08-26T19:39:50.993Z,6.28
2022-08-26T19:42:18.806Z,6.68
2022-08-26T19:45:04.795Z,6.75
2022-08-26T19:47:32.231Z,7.45
2022-08-26T19:50:09.788Z,6.65
2022-08-26T19:52:41.157Z,6.07
2022-08-26T19:55:11.425Z,6.38
2022-08-26T19:57:44.089Z,5.60
2022-08-26T20:00:14.934Z,6.32
2022-08-26T20:02:44.266Z,6.50
2022-08-26T20:05:14.708Z,5.88
2022-08-26T20:07:42.233Z,5.63
2022-08-26T20:10:12.934Z,6.30
2022-08-26T20:12:42.878Z,5.88
2022-08-26T20:15:12.987Z,6.03
2022-08-26T20:17:45.530Z,6.93
2022-08-26T20:20:40.009Z,6.45
2022-08-26T20:23:12.576Z,6.18
2022-08-26T20:25:46.662Z,5.50
2022-08-26T20:28:16.200Z,5.40
2022-08-26T20:30:43.658Z,6.35
2022-08-26T20:33:15.523Z,5.80
2022-08-26T20:35:42.970Z,6.75
2022-08-26T20:38:10.679Z,5.90
2022-08-26T20:40:47.550Z,5.95
2022-08-26T20:43:15.482Z,6.07
2022-08-26T20:45:45.211Z,6.45
2022-08-26T20:48:12.793Z,6.18
2022-08-26T20:50:42.587Z,8.32
2022-08-26T20:53:15.057Z,6.80
2022-08-26T20:55:47.570Z,5.95
2022-08-26T20:58:20.218Z,6.13
2022-08-26T21:00:50.648Z,6.78
2022-08-26T21:03:23.377Z,6.20
2022-08-26T21:05:51.278Z,6.23
2022-08-26T21:08:23.005Z,6.20
2022-08-26T21:10:55.236Z,6.18
2022-08-26T21:13:23.890Z,6.10
2022-08-26T21:15:55.157Z,5.95
2022-08-26T21:18:25.580Z,6.38
2022-08-26T21:20:52.888Z,5.63
2022-08-26T21:23:20.286Z,7.13
2022-08-26T21:25:49.929Z,5.93
2022-08-26T21:28:19.676Z,6.53
2022-08-26T21:30:46.974Z,6.55
2022-08-26T21:33:16.765Z,6.20
2022-08-26T21:35:56.265Z,6.53
2022-08-26T21:38:28.360Z,5.85
2022-08-26T21:41:02.292Z,6.13
2022-08-26T21:43:35.200Z,5.70
2022-08-26T21:46:16.517Z,5.50
2022-08-26T21:48:56.586Z,6.20
2022-08-26T21:51:27.274Z,6.50
2022-08-26T21:54:10.175Z,5.65
2022-08-26T21:59:19.243Z,5.80
2022-08-26T22:01:47.315Z,5.72
2022-08-26T22:04:18.155Z,5.57
2022-08-26T22:06:52.654Z,5.75
2022-08-26T22:09:22.973Z,6.25
2022-08-26T22:11:50.960Z,6.72
2022-08-26T22:14:30.476Z,5.50
2022-08-26T22:17:03.329Z,6.35
2022-08-26T22:19:33.977Z,5.78
2022-08-26T22:22:03.911Z,5.20
2022-08-26T22:24:31.104Z,5.75
2022-08-26T22:27:00.892Z,5.80
2022-08-26T22:29:32.278Z,6.07
2022-08-26T22:32:01.966Z,6.10
2022-08-26T22:34:29.280Z,5.60
2022-08-26T22:36:59.612Z,6.05
2022-08-26T22:39:29.481Z,5.88
2022-08-26T22:42:00.185Z,6.35
2022-08-26T22:44:27.330Z,5.68
2022-08-26T22:46:54.744Z,13.40
2022-08-26T22:49:24.545Z,5.97
2022-08-26T22:51:51.765Z,6.90
2022-08-26T22:54:19.333Z,7.15
2022-08-26T22:56:49.227Z,5.35
2022-08-26T22:59:21.892Z,6.70
2022-08-26T23:01:49.361Z,5.65
2022-08-26T23:04:20.302Z,5.93
2022-08-26T23:06:50.206Z,6.82
2022-08-26T23:09:18.680Z,6.25
2022-08-26T23:11:49.319Z,6.10
2022-08-26T23:14:20.728Z,6.10
2022-08-26T23:16:51.602Z,6.43
2022-08-26T23:19:24.637Z,6.43
2022-08-26T23:21:56.940Z,6.47
2022-08-26T23:24:28.732Z,5.88
2022-08-26T23:27:01.799Z,6.72
2022-08-26T23:29:31.269Z,5.68
2022-08-26T23:31:58.584Z,6.10
2022-08-26T23:34:49.618Z,6.53
2022-08-26T23:37:25.204Z,6.25
2022-08-26T23:39:59.229Z,5.75
2022-08-26T23:42:28.978Z,7.07
2022-08-26T23:44:57.372Z,5.80
2022-08-26T23:47:25.180Z,6.85
2022-08-26T23:49:57.095Z,6.45
2022-08-26T23:52:42.978Z,5.63
2022-08-26T23:55:13.462Z,5.70
2022-08-26T23:57:43.625Z,5.50
